Time;durP1;ratioP1;P1;durP2;ratioP2;P2;SDS_P1;SDS_P2;PMS_P1;PMS_P2;Temp;Humidity;BMP_temperature;BMP_pressure;BME280_temperature;BME280_humidity;BME280_pressure;Samples;Min_cycle;Max_cycle;Signal;HPM_P1;HPM_P2
2022/03/16 00:02:19;;;;;;;15.63;10.30;;;;;;;;;;4986001;28;20503;-81
2022/03/16 00:04:55;;;;;;;14.70;9.13;;;;;;;;;;4995844;28;20094;-81
2022/03/16 00:07:21;;;;;;;12.57;8.23;;;;;;;;;;4979045;28;20030;-81
2022/03/16 00:09:46;;;;;;;14.65;9.30;;;;;;;;;;4978911;28;20041;-80
2022/03/16 00:12:12;;;;;;;14.40;8.77;;;;;;;;;;4995631;28;20095;-81
2022/03/16 00:14:37;;;;;;;16.35;9.15;;;;;;;;;;4995076;28;20038;-81
2022/03/16 00:17:03;;;;;;;14.38;8.63;;;;;;;;;;4979177;28;20057;-81
2022/03/16 00:19:29;;;;;;;12.75;8.30;;;;;;;;;;4978840;28;20030;-81
2022/03/16 00:21:54;;;;;;;12.30;7.78;;;;;;;;;;4994754;28;20164;-81
2022/03/16 00:24:20;;;;;;;13.95;8.30;;;;;;;;;;4994778;28;20046;-81
2022/03/16 00:26:45;;;;;;;14.05;8.48;;;;;;;;;;4995028;28;20092;-81
2022/03/16 00:29:11;;;;;;;14.10;7.90;;;;;;;;;;4980121;28;20042;-81
2022/03/16 00:31:36;;;;;;;12.90;8.48;;;;;;;;;;4975500;28;20452;-80
2022/03/16 00:34:02;;;;;;;12.27;7.78;;;;;;;;;;4975337;28;20034;-81
2022/03/16 00:36:27;;;;;;;12.35;7.40;;;;;;;;;;4974665;28;20031;-80
2022/03/16 00:38:53;;;;;;;11.50;7.65;;;;;;;;;;4975882;28;20035;-81
2022/03/16 00:41:18;;;;;;;11.32;7.25;;;;;;;;;;4959391;28;20121;-81
2022/03/16 00:43:44;;;;;;;11.48;7.47;;;;;;;;;;4975047;28;20416;-81
2022/03/16 00:46:09;;;;;;;12.45;7.32;;;;;;;;;;4959243;28;20049;-81
2022/03/16 00:48:35;;;;;;;12.82;8.25;;;;;;;;;;4975145;28;20116;-81
2022/03/16 00:51:01;;;;;;;10.82;7.18;;;;;;;;;;4978255;28;20428;-81
2022/03/16 00:53:26;;;;;;;9.85;6.85;;;;;;;;;;4994473;28;20038;-81
2022/03/16 00:55:51;;;;;;;11.10;6.75;;;;;;;;;;4994645;28;20450;-81
2022/03/16 00:58:17;;;;;;;9.48;6.63;;;;;;;;;;4994118;28;20041;-81
2022/03/16 01:00:42;;;;;;;12.65;7.03;;;;;;;;;;4978469;28;20060;-81
2022/03/16 01:03:08;;;;;;;10.23;6.40;;;;;;;;;;4994498;28;20034;-81
2022/03/16 01:05:33;;;;;;;10.60;6.40;;;;;;;;;;4994397;28;20040;-81
2022/03/16 01:07:59;;;;;;;10.10;7.03;;;;;;;;;;4994322;28;20392;-81
2022/03/16 01:10:24;;;;;;;11.00;6.20;;;;;;;;;;4994302;28;20424;-81
2022/03/16 01:12:50;;;;;;;10.02;6.03;;;;;;;;;;4978074;28;20030;-81
2022/03/16 01:15:16;;;;;;;8.50;5.85;;;;;;;;;;4994519;28;20037;-81
2022/03/16 01:17:41;;;;;;;8.00;5.57;;;;;;;;;;4994271;28;20045;-80
2022/03/16 01:20:07;;;;;;;10.35;6.45;;;;;;;;;;4994333;28;20030;-80
2022/03/16 01:22:32;;;;;;;8.65;5.28;;;;;;;;;;4985128;28;20026;-81
2022/03/16 01:24:58;;;;;;;7.78;5.95;;;;;;;;;;4974807;28;20519;-81
2022/03/16 01:27:24;;;;;;;10.00;5.70;;;;;;;;;;4974618;28;20050;-81
2022/03/16 01:29:50;;;;;;;9.77;6.07;;;;;;;;;;4974683;28;20085;-80
2022/03/16 01:32:15;;;;;;;9.50;5.93;;;;;;;;;;4958656;28;20090;-80
2022/03/16 01:34:41;;;;;;;9.93;6.38;;;;;;;;;;4979491;28;20038;-81
2022/03/16 01:37:06;;;;;;;8.18;5.72;;;;;;;;;;5010256;28;20512;-81
2022/03/16 01:39:32;;;;;;;9.20;5.38;;;;;;;;;;5010964;28;20038;-80
2022/03/16 01:41:58;;;;;;;9.77;5.22;;;;;;;;;;4977691;28;20044;-80
2022/03/16 01:44:44;;;;;;;10.10;5.80;;;;;;;;;;4994338;28;20041;-80
2022/03/16 01:47:10;;;;;;;8.45;5.22;;;;;;;;;;4994396;28;20081;-80
2022/03/16 01:49:35;;;;;;;8.20;4.90;;;;;;;;;;4993723;28;20033;-80
2022/03/16 01:52:00;;;;;;;8.75;5.70;;;;;;;;;;4990410;28;20382;-80
2022/03/16 01:54:26;;;;;;;8.10;5.45;;;;;;;;;;4974402;28;20038;-80
2022/03/16 01:56:51;;;;;;;7.75;4.78;;;;;;;;;;4977549;28;20041;-81
2022/03/16 01:59:17;;;;;;;7.70;4.70;;;;;;;;;;4979417;28;20512;-81
2022/03/16 02:01:42;;;;;;;7.03;4.72;;;;;;;;;;4997408;28;20104;-81
2022/03/16 02:04:07;;;;;;;10.05;5.45;;;;;;;;;;4997531;28;20034;-81
2022/03/16 02:06:33;;;;;;;7.07;4.55;;;;;;;;;;4997329;28;20046;-81
2022/03/16 02:08:58;;;;;;;7.80;4.90;;;;;;;;;;4997684;28;20064;-81
2022/03/16 02:11:24;;;;;;;6.35;4.50;;;;;;;;;;4997623;28;20041;-81
2022/03/16 02:13:49;;;;;;;8.15;4.68;;;;;;;;;;4997646;28;20080;-80
2022/03/16 02:16:15;;;;;;;7.32;4.88;;;;;;;;;;4992156;28;20781;-81
2022/03/16 02:18:40;;;;;;;7.55;5.03;;;;;;;;;;4961427;28;20034;-81
2022/03/16 02:21:06;;;;;;;7.10;4.25;;;;;;;;;;4978185;28;20109;-81
2022/03/16 02:23:32;;;;;;;7.38;4.22;;;;;;;;;;4961788;28;20030;-80
2022/03/16 02:25:57;;;;;;;6.78;4.25;;;;;;;;;;4961370;28;20092;-80
2022/03/16 02:28:24;;;;;;;6.15;4.38;;;;;;;;;;4978442;28;20031;-81
2022/03/16 02:30:50;;;;;;;6.32;3.70;;;;;;;;;;4978016;28;20109;-80
2022/03/16 02:33:15;;;;;;;9.07;5.53;;;;;;;;;;4961390;28;20030;-80
2022/03/16 02:35:41;;;;;;;7.25;4.18;;;;;;;;;;4974066;28;20038;-81
2022/03/16 02:38:06;;;;;;;7.18;4.13;;;;;;;;;;4996702;28;20124;-81
2022/03/16 02:40:32;;;;;;;5.43;3.70;;;;;;;;;;5013412;28;20041;-81
2022/03/16 02:42:58;;;;;;;5.43;3.78;;;;;;;;;;4996973;28;20500;-81
2022/03/16 02:45:23;;;;;;;7.05;4.47;;;;;;;;;;4980891;28;20509;-81
2022/03/16 02:47:49;;;;;;;6.15;3.67;;;;;;;;;;4980606;28;20043;-81
2022/03/16 02:50:16;;;;;;;6.13;3.80;;;;;;;;;;5012997;28;20037;-81
2022/03/16 02:52:42;;;;;;;5.30;3.53;;;;;;;;;;4980233;28;20508;-81
2022/03/16 02:55:08;;;;;;;4.85;3.60;;;;;;;;;;4980406;28;20121;-81
2022/03/16 02:57:33;;;;;;;5.43;4.13;;;;;;;;;;4997230;28;20404;-81
2022/03/16 02:59:59;;;;;;;5.05;3.25;;;;;;;;;;4977686;28;20465;-80
2022/03/16 03:02:24;;;;;;;6.35;3.70;;;;;;;;;;4996793;28;20045;-81
2022/03/16 03:04:50;;;;;;;5.78;4.07;;;;;;;;;;4964429;28;20374;-81
2022/03/16 03:07:15;;;;;;;5.07;3.38;;;;;;;;;;4980439;28;20096;-81
2022/03/16 03:09:41;;;;;;;5.22;3.00;;;;;;;;;;4996208;28;20125;-80
2022/03/16 03:12:07;;;;;;;5.13;3.55;;;;;;;;;;4976383;28;20038;-81
2022/03/16 03:14:32;;;;;;;5.68;3.33;;;;;;;;;;4961117;28;20069;-81
2022/03/16 03:16:58;;;;;;;4.25;2.90;;;;;;;;;;4961120;28;20070;-81
2022/03/16 03:19:23;;;;;;;4.95;3.35;;;;;;;;;;4960461;28;20093;-81
2022/03/16 03:21:49;;;;;;;5.93;3.10;;;;;;;;;;4976242;28;20497;-80
2022/03/16 03:24:14;;;;;;;4.72;2.97;;;;;;;;;;4960688;28;20186;-81
2022/03/16 03:26:40;;;;;;;4.82;3.35;;;;;;;;;;4960760;28;20050;-80
2022/03/16 03:29:06;;;;;;;5.20;3.13;;;;;;;;;;4977260;28;20026;-81
2022/03/16 03:31:31;;;;;;;4.85;3.10;;;;;;;;;;4976786;28;20030;-80
2022/03/16 03:33:57;;;;;;;4.20;2.85;;;;;;;;;;4960290;28;20081;-81
2022/03/16 03:36:22;;;;;;;5.00;3.20;;;;;;;;;;4994647;28;20038;-80
2022/03/16 03:38:48;;;;;;;5.70;3.33;;;;;;;;;;5012146;28;20064;-81
2022/03/16 03:41:13;;;;;;;5.57;3.15;;;;;;;;;;4979854;28;20042;-80
2022/03/16 03:43:38;;;;;;;4.00;3.10;;;;;;;;;;4995819;28;20038;-81
2022/03/16 03:46:04;;;;;;;4.93;2.92;;;;;;;;;;5012114;28;20467;-80
2022/03/16 03:48:30;;;;;;;5.80;3.40;;;;;;;;;;4979228;28;20139;-81
2022/03/16 03:50:55;;;;;;;4.38;2.78;;;;;;;;;;4995573;28;20465;-81
2022/03/16 03:53:21;;;;;;;4.75;2.85;;;;;;;;;;5011839;28;20504;-81
2022/03/16 03:55:46;;;;;;;4.45;3.08;;;;;;;;;;4995304;28;20050;-80
2022/03/16 03:58:12;;;;;;;3.90;2.53;;;;;;;;;;5012315;28;20531;-81
2022/03/16 04:00:38;;;;;;;3.75;2.47;;;;;;;;;;4995645;28;20038;-81
2022/03/16 04:03:04;;;;;;;4.75;2.92;;;;;;;;;;4995367;28;20041;-81
2022/03/16 04:05:29;;;;;;;4.68;2.88;;;;;;;;;;4981466;28;20060;-81
2022/03/16 04:07:55;;;;;;;4.18;2.50;;;;;;;;;;4959881;28;20037;-81
2022/03/16 04:10:20;;;;;;;3.95;2.75;;;;;;;;;;4975709;28;20041;-81
2022/03/16 04:12:45;;;;;;;3.67;2.40;;;;;;;;;;4974041;28;20035;-81
2022/03/16 04:15:11;;;;;;;3.97;2.40;;;;;;;;;;4974135;28;20034;-81
2022/03/16 04:17:36;;;;;;;3.97;2.85;;;;;;;;;;4992271;28;20038;-81
2022/03/16 04:20:03;;;;;;;4.22;2.20;;;;;;;;;;4974846;28;20409;-81
2022/03/16 04:22:28;;;;;;;4.90;2.47;;;;;;;;;;4958891;28;20030;-81
2022/03/16 04:24:57;;;;;;;3.40;2.03;;;;;;;;;;4975673;28;20093;-81
2022/03/16 04:27:22;;;;;;;4.00;2.67;;;;;;;;;;4976027;28;20038;-81
2022/03/16 04:29:48;;;;;;;3.72;2.33;;;;;;;;;;4975818;28;20064;-81
2022/03/16 04:32:14;;;;;;;3.85;2.83;;;;;;;;;;4975571;28;20058;-81
2022/03/16 04:34:39;;;;;;;4.65;3.08;;;;;;;;;;4974948;28;20039;-81
2022/03/16 04:37:05;;;;;;;3.20;2.42;;;;;;;;;;4958567;28;20061;-80
2022/03/16 04:39:31;;;;;;;4.55;2.33;;;;;;;;;;4959309;28;20050;-81
2022/03/16 04:41:56;;;;;;;3.92;2.50;;;;;;;;;;4959351;28;20404;-81
2022/03/16 04:44:22;;;;;;;4.22;2.10;;;;;;;;;;4974842;28;20034;-81
2022/03/16 04:46:47;;;;;;;3.72;2.47;;;;;;;;;;4958848;28;20097;-81
2022/03/16 04:49:12;;;;;;;3.40;2.05;;;;;;;;;;4958638;28;20046;-81
2022/03/16 04:51:40;;;;;;;2.95;1.92;;;;;;;;;;4963849;28;20038;-81
2022/03/16 04:54:05;;;;;;;3.00;2.28;;;;;;;;;;4975112;28;20066;-81
2022/03/16 04:56:31;;;;;;;3.85;2.20;;;;;;;;;;4961199;28;20466;-81
2022/03/16 04:58:56;;;;;;;2.97;1.75;;;;;;;;;;4978611;28;20042;-81
2022/03/16 05:01:22;;;;;;;4.57;2.75;;;;;;;;;;4961999;28;20037;-81
2022/03/16 05:03:47;;;;;;;3.28;2.08;;;;;;;;;;4994125;28;20037;-81
2022/03/16 05:06:13;;;;;;;3.47;2.08;;;;;;;;;;4994332;28;20036;-81
2022/03/16 05:08:38;;;;;;;4.47;2.28;;;;;;;;;;4978330;28;20104;-81
2022/03/16 05:11:04;;;;;;;3.80;1.95;;;;;;;;;;4994446;28;20045;-81
2022/03/16 05:13:30;;;;;;;3.67;2.05;;;;;;;;;;4994285;28;20042;-82
2022/03/16 05:15:55;;;;;;;3.58;2.13;;;;;;;;;;4961800;28;20033;-82
2022/03/16 05:18:23;;;;;;;2.90;1.70;;;;;;;;;;4977648;28;20034;-81
2022/03/16 05:20:48;;;;;;;3.85;1.80;;;;;;;;;;4994632;28;20037;-81
2022/03/16 05:23:14;;;;;;;4.20;2.30;;;;;;;;;;4978352;28;20046;-81
2022/03/16 05:25:39;;;;;;;4.75;3.20;;;;;;;;;;4994221;28;20421;-81
2022/03/16 05:28:05;;;;;;;4.63;2.08;;;;;;;;;;4978108;28;20033;-80
2022/03/16 05:30:30;;;;;;;3.42;2.05;;;;;;;;;;4977893;28;20464;-81
2022/03/16 05:33:02;;;;;;;3.72;2.05;;;;;;;;;;4978039;28;20034;-81
2022/03/16 05:35:27;;;;;;;2.67;1.70;;;;;;;;;;4982752;28;20038;-81
2022/03/16 05:37:53;;;;;;;3.80;1.98;;;;;;;;;;4981914;28;20651;-81
2022/03/16 05:40:18;;;;;;;3.20;2.00;;;;;;;;;;5014869;28;20524;-81
2022/03/16 05:42:44;;;;;;;4.47;1.98;;;;;;;;;;4998098;28;20053;-81
2022/03/16 05:45:10;;;;;;;3.28;2.13;;;;;;;;;;4981733;28;20566;-81
2022/03/16 05:47:35;;;;;;;4.25;2.17;;;;;;;;;;4997799;28;20033;-81
2022/03/16 05:50:00;;;;;;;2.92;1.85;;;;;;;;;;4997645;28;20439;-81
2022/03/16 05:52:27;;;;;;;3.45;1.70;;;;;;;;;;4978362;28;20034;-81
2022/03/16 05:54:54;;;;;;;3.05;2.08;;;;;;;;;;4962560;28;20202;-81
2022/03/16 05:57:20;;;;;;;3.10;1.60;;;;;;;;;;4986888;28;20508;-81
2022/03/16 05:59:46;;;;;;;3.20;1.90;;;;;;;;;;4981317;28;20105;-81
2022/03/16 06:02:11;;;;;;;2.88;1.92;;;;;;;;;;4978114;28;20100;-81
2022/03/16 06:04:37;;;;;;;4.20;1.70;;;;;;;;;;4962355;28;20452;-82
2022/03/16 06:07:03;;;;;;;2.80;1.70;;;;;;;;;;4978347;28;20038;-82
2022/03/16 06:09:29;;;;;;;3.03;1.83;;;;;;;;;;4978245;28;20030;-82
2022/03/16 06:11:54;;;;;;;4.53;2.00;;;;;;;;;;4945972;28;20045;-82
2022/03/16 06:14:20;;;;;;;3.60;1.90;;;;;;;;;;4976435;28;20416;-81
2022/03/16 06:16:47;;;;;;;7.50;3.45;;;;;;;;;;4959478;28;20042;-80
2022/03/16 06:19:13;;;;;;;2.60;1.60;;;;;;;;;;4943831;28;20092;-81
2022/03/16 06:21:39;;;;;;;2.90;1.52;;;;;;;;;;4962000;28;20027;-81
2022/03/16 06:24:05;;;;;;;5.78;1.90;;;;;;;;;;4945810;28;20053;-83
2022/03/16 06:26:31;;;;;;;4.22;2.13;;;;;;;;;;4977861;28;20088;-83
2022/03/16 06:28:56;;;;;;;4.60;1.60;;;;;;;;;;4945714;28;20034;-84
2022/03/16 06:31:23;;;;;;;3.53;1.65;;;;;;;;;;4977711;28;20493;-84
2022/03/16 06:33:48;;;;;;;3.42;1.65;;;;;;;;;;4994291;28;20053;-83
2022/03/16 06:36:14;;;;;;;3.60;1.92;;;;;;;;;;4962087;28;20447;-82
2022/03/16 06:38:39;;;;;;;2.45;1.60;;;;;;;;;;4981080;28;20037;-82
2022/03/16 06:41:05;;;;;;;2.85;1.60;;;;;;;;;;4980863;28;20041;-84
2022/03/16 06:43:31;;;;;;;3.53;1.73;;;;;;;;;;4980947;28;20100;-82
2022/03/16 06:45:56;;;;;;;3.80;1.67;;;;;;;;;;4979403;28;20030;-83
2022/03/16 06:48:23;;;;;;;6.03;2.05;;;;;;;;;;4995705;28;20042;-84
2022/03/16 06:50:49;;;;;;;5.20;2.22;;;;;;;;;;4963477;28;20041;-84
2022/03/16 06:53:15;;;;;;;3.88;2.08;;;;;;;;;;4980639;28;20472;-85
2022/03/16 06:55:40;;;;;;;11.80;2.45;;;;;;;;;;4964773;28;20141;-84
2022/03/16 06:58:06;;;;;;;5.68;2.78;;;;;;;;;;4980565;28;20030;-86
2022/03/16 07:00:32;;;;;;;8.88;3.72;;;;;;;;;;4961473;28;20369;-85
2022/03/16 07:03:02;;;;;;;7.65;3.13;;;;;;;;;;4992745;28;20438;-84
2022/03/16 07:05:46;;;;;;;8.20;2.88;;;;;;;;;;4976343;28;20037;-84
2022/03/16 07:08:12;;;;;;;9.45;3.25;;;;;;;;;;4977208;28;20046;-84
2022/03/16 07:10:42;;;;;;;9.75;3.08;;;;;;;;;;4976957;28;20062;-85
2022/03/16 07:13:11;;;;;;;9.15;3.47;;;;;;;;;;4961286;28;20501;-84
2022/03/16 07:15:42;;;;;;;6.45;2.88;;;;;;;;;;4945792;28;20034;-84
2022/03/16 07:18:07;;;;;;;10.55;3.85;;;;;;;;;;4944936;28;20074;-84
2022/03/16 07:20:34;;;;;;;8.32;3.20;;;;;;;;;;4944968;28;20070;-84
2022/03/16 07:23:04;;;;;;;6.68;3.65;;;;;;;;;;4976773;28;20034;-85
2022/03/16 07:25:29;;;;;;;5.57;3.20;;;;;;;;;;4993023;28;20034;-84
2022/03/16 07:27:55;;;;;;;5.07;2.28;;;;;;;;;;4976191;28;20508;-83
2022/03/16 07:30:21;;;;;;;5.15;2.67;;;;;;;;;;4976829;28;20058;-82
2022/03/16 07:32:48;;;;;;;6.90;2.40;;;;;;;;;;4977436;28;20038;-83
2022/03/16 07:35:26;;;;;;;6.93;2.47;;;;;;;;;;4987870;28;20034;-81
2022/03/16 07:37:52;;;;;;;6.03;2.45;;;;;;;;;;4980196;28;20033;-81
2022/03/16 07:40:17;;;;;;;8.48;2.95;;;;;;;;;;4979456;28;20034;-81
2022/03/16 07:42:46;;;;;;;5.38;1.95;;;;;;;;;;5011977;28;20539;-81
2022/03/16 07:45:13;;;;;;;9.70;3.22;;;;;;;;;;5012198;28;20038;-80
2022/03/16 07:47:39;;;;;;;8.05;2.10;;;;;;;;;;4979592;28;20037;-80
2022/03/16 07:50:04;;;;;;;7.78;2.50;;;;;;;;;;4963146;28;20034;-80
2022/03/16 07:52:31;;;;;;;4.40;1.83;;;;;;;;;;5007993;28;20037;-80
2022/03/16 07:54:56;;;;;;;6.28;3.22;;;;;;;;;;4960164;28;20451;-80
2022/03/16 07:57:22;;;;;;;8.57;2.08;;;;;;;;;;4967942;28;20061;-80
2022/03/16 07:59:47;;;;;;;7.15;2.25;;;;;;;;;;4979213;28;20037;-80
2022/03/16 08:02:16;;;;;;;5.85;1.80;;;;;;;;;;4995556;28;20030;-80
2022/03/16 08:04:41;;;;;;;6.03;1.67;;;;;;;;;;4979171;28;20038;-80
2022/03/16 08:07:09;;;;;;;7.60;1.95;;;;;;;;;;4979314;28;20113;-80
2022/03/16 08:09:35;;;;;;;4.03;1.67;;;;;;;;;;4979703;28;20038;-80
2022/03/16 08:12:00;;;;;;;4.57;1.55;;;;;;;;;;4977832;28;20042;-79
2022/03/16 08:14:26;;;;;;;3.58;1.80;;;;;;;;;;4978657;28;20420;-80
2022/03/16 08:16:51;;;;;;;4.65;1.88;;;;;;;;;;4995036;28;20084;-81
2022/03/16 08:19:17;;;;;;;3.92;1.95;;;;;;;;;;4978464;28;20088;-81
2022/03/16 08:21:43;;;;;;;4.40;2.05;;;;;;;;;;4994873;28;20463;-81
2022/03/16 08:24:08;;;;;;;4.47;2.08;;;;;;;;;;4995067;28;20033;-81
2022/03/16 08:26:34;;;;;;;4.05;1.77;;;;;;;;;;4962472;28;20041;-81
2022/03/16 08:28:59;;;;;;;2.85;1.52;;;;;;;;;;4995308;28;20034;-81
2022/03/16 08:31:25;;;;;;;3.67;1.48;;;;;;;;;;4995061;28;20065;-81
2022/03/16 08:33:51;;;;;;;6.55;1.70;;;;;;;;;;4995029;28;20041;-81
2022/03/16 08:36:17;;;;;;;5.00;1.50;;;;;;;;;;4995212;28;20034;-81
2022/03/16 08:38:42;;;;;;;2.20;1.00;;;;;;;;;;4978851;28;20072;-82
2022/03/16 08:41:10;;;;;;;5.43;1.45;;;;;;;;;;4978360;28;20045;-81
2022/03/16 08:43:36;;;;;;;2.78;1.63;;;;;;;;;;4978981;28;20034;-81
2022/03/16 08:46:01;;;;;;;4.05;1.50;;;;;;;;;;4975081;28;20424;-81
2022/03/16 08:48:27;;;;;;;5.68;1.48;;;;;;;;;;4990666;28;20038;-80
2022/03/16 08:50:52;;;;;;;5.55;1.20;;;;;;;;;;4961567;28;20122;-80
2022/03/16 08:53:18;;;;;;;4.20;1.27;;;;;;;;;;4994361;28;20404;-80
2022/03/16 08:55:43;;;;;;;3.58;1.55;;;;;;;;;;4975583;28;20135;-80
2022/03/16 08:58:09;;;;;;;4.30;1.80;;;;;;;;;;4994137;28;20059;-80
2022/03/16 09:00:34;;;;;;;2.47;1.05;;;;;;;;;;4994359;28;20081;-80
2022/03/16 09:03:00;;;;;;;3.85;1.85;;;;;;;;;;4974797;28;20408;-80
2022/03/16 09:05:26;;;;;;;2.30;1.00;;;;;;;;;;4975093;28;20061;-79
2022/03/16 09:07:51;;;;;;;2.63;1.05;;;;;;;;;;4958535;28;20030;-80
2022/03/16 09:10:16;;;;;;;3.97;1.30;;;;;;;;;;4974344;28;20113;-80
2022/03/16 09:12:42;;;;;;;5.55;1.42;;;;;;;;;;4958815;28;20052;-80
2022/03/16 09:15:08;;;;;;;3.67;1.17;;;;;;;;;;4958899;28;20528;-79
2022/03/16 09:17:34;;;;;;;2.83;0.80;;;;;;;;;;4974766;28;20041;-80
2022/03/16 09:20:03;;;;;;;5.10;1.42;;;;;;;;;;4958291;28;20031;-78
2022/03/16 09:22:29;;;;;;;4.88;2.05;;;;;;;;;;4943322;28;20030;-78
2022/03/16 09:24:56;;;;;;;5.13;1.52;;;;;;;;;;4942201;28;20069;-82
2022/03/16 09:27:23;;;;;;;5.88;2.33;;;;;;;;;;4959260;28;20100;-79
2022/03/16 09:29:48;;;;;;;3.70;1.30;;;;;;;;;;4958840;28;20069;-80
2022/03/16 09:32:14;;;;;;;6.32;2.00;;;;;;;;;;4974736;28;20030;-80
2022/03/16 09:34:40;;;;;;;5.20;1.42;;;;;;;;;;4974680;28;20042;-85
2022/03/16 09:37:07;;;;;;;5.22;1.73;;;;;;;;;;4958854;28;20124;-80
2022/03/16 09:39:32;;;;;;;5.20;1.52;;;;;;;;;;4958510;28;20481;-78
2022/03/16 09:41:58;;;;;;;4.75;1.38;;;;;;;;;;4990718;28;20037;-78
2022/03/16 09:44:24;;;;;;;4.68;1.67;;;;;;;;;;4990813;28;20034;-78
2022/03/16 09:46:50;;;;;;;4.90;1.65;;;;;;;;;;4985581;28;20455;-78
2022/03/16 09:49:15;;;;;;;8.07;1.73;;;;;;;;;;4958462;28;20050;-78
2022/03/16 09:51:41;;;;;;;8.73;1.60;;;;;;;;;;4983351;28;20034;-77
2022/03/16 09:54:07;;;;;;;6.50;1.45;;;;;;;;;;4993631;28;20085;-78
2022/03/16 09:56:33;;;;;;;3.72;1.17;;;;;;;;;;4994354;28;20050;-77
2022/03/16 09:58:59;;;;;;;6.60;1.48;;;;;;;;;;4977333;28;20112;-78
2022/03/16 10:01:24;;;;;;;4.07;1.50;;;;;;;;;;4977628;28;20455;-78
2022/03/16 10:03:49;;;;;;;3.08;1.55;;;;;;;;;;4993382;28;20058;-78
2022/03/16 10:06:17;;;;;;;6.47;1.60;;;;;;;;;;5009351;28;20045;-77
2022/03/16 10:13:13;;;;;;;5.78;1.20;;;;;;;;;;5009847;28;20034;-78
2022/03/16 10:14:14;;;;;;;2.95;0.90;;;;;;;;;;4996165;28;20069;-78
2022/03/16 10:19:51;;;;;;;4.80;1.45;;;;;;;;;;5010708;28;20121;-78
2022/03/16 10:22:25;;;;;;;5.00;2.17;;;;;;;;;;5013341;28;20129;-78
2022/03/16 10:25:01;;;;;;;7.20;3.22;;;;;;;;;;5013521;28;20037;-78
2022/03/16 10:27:26;;;;;;;5.10;2.92;;;;;;;;;;4981070;28;20121;-78
2022/03/16 10:29:52;;;;;;;7.85;4.05;;;;;;;;;;5013612;28;20101;-77
2022/03/16 10:32:17;;;;;;;8.10;4.45;;;;;;;;;;4997469;28;20514;-77
2022/03/16 10:34:50;;;;;;;9.32;5.32;;;;;;;;;;5012990;28;20420;-78
2022/03/16 10:37:23;;;;;;;8.10;5.07;;;;;;;;;;5013378;28;20034;-78
2022/03/16 10:39:50;;;;;;;8.00;4.93;;;;;;;;;;4996768;28;20042;-78
2022/03/16 10:48:25;;;;;;;8.65;5.28;;;;;;;;;;4988244;28;20129;-78
2022/03/16 10:50:56;;;;;;;8.75;5.97;;;;;;;;;;5013197;28;20048;-77
2022/03/16 10:53:28;;;;;;;9.60;5.15;;;;;;;;;;4980390;28;20033;-78
2022/03/16 10:55:55;;;;;;;7.72;5.07;;;;;;;;;;5013090;28;20050;-77
2022/03/16 10:58:20;;;;;;;8.90;5.20;;;;;;;;;;4996912;28;20128;-77
2022/03/16 11:00:46;;;;;;;7.40;4.32;;;;;;;;;;4996854;28;20038;-77
2022/03/16 11:03:16;;;;;;;6.57;4.60;;;;;;;;;;4996628;28;20069;-78
2022/03/16 11:05:42;;;;;;;8.45;4.25;;;;;;;;;;5012470;28;20046;-78
2022/03/16 11:08:08;;;;;;;5.80;3.58;;;;;;;;;;4996330;28;20080;-78
2022/03/16 11:10:36;;;;;;;7.15;4.40;;;;;;;;;;4996807;28;20049;-78
2022/03/16 11:15:50;;;;;;;5.60;3.72;;;;;;;;;;5013076;28;20550;-78
2022/03/16 11:18:19;;;;;;;6.53;3.50;;;;;;;;;;5012339;28;20459;-77
2022/03/16 11:20:46;;;;;;;6.28;3.13;;;;;;;;;;4996168;28;20551;-77
2022/03/16 11:26:03;;;;;;;5.45;3.22;;;;;;;;;;5012652;28;20053;-78
2022/03/16 11:28:45;;;;;;;5.30;3.00;;;;;;;;;;5012642;28;20038;-78
2022/03/16 11:31:14;;;;;;;5.93;2.97;;;;;;;;;;4995959;28;20037;-78
2022/03/16 11:33:52;;;;;;;9.57;3.35;;;;;;;;;;4974578;28;20057;-77
2022/03/16 11:36:38;;;;;;;5.57;3.17;;;;;;;;;;4995848;28;20080;-78
2022/03/16 11:39:20;;;;;;;7.13;3.10;;;;;;;;;;4997651;28;20109;-77
2022/03/16 11:41:55;;;;;;;6.80;3.00;;;;;;;;;;4992721;28;20114;-78
2022/03/16 11:44:26;;;;;;;6.05;2.88;;;;;;;;;;4960223;28;20432;-79
2022/03/16 11:46:52;;;;;;;7.73;2.70;;;;;;;;;;4992694;28;20042;-78
2022/03/16 11:49:30;;;;;;;10.00;3.15;;;;;;;;;;4959634;28;20656;-78
2022/03/16 11:51:59;;;;;;;7.55;2.78;;;;;;;;;;4970500;28;20042;-78
2022/03/16 11:54:48;;;;;;;10.30;4.00;;;;;;;;;;4995572;28;20531;-78
2022/03/16 11:57:15;;;;;;;6.88;2.78;;;;;;;;;;4996147;28;20117;-78
2022/03/16 11:59:46;;;;;;;9.57;2.88;;;;;;;;;;4995783;28;20507;-78
2022/03/16 12:02:21;;;;;;;10.20;3.20;;;;;;;;;;4976262;28;20394;-77
2022/03/16 12:04:47;;;;;;;9.73;3.30;;;;;;;;;;4960273;28;20283;-77
2022/03/16 12:07:22;;;;;;;7.20;2.67;;;;;;;;;;4992389;28;20201;-78
2022/03/16 12:09:52;;;;;;;8.95;3.03;;;;;;;;;;4975996;28;20110;-78
2022/03/16 12:12:54;;;;;;;6.03;2.72;;;;;;;;;;4976421;28;20065;-78
2022/03/16 12:15:38;;;;;;;6.45;2.70;;;;;;;;;;4977005;28;20120;-78
2022/03/16 12:18:07;;;;;;;6.60;3.45;;;;;;;;;;4992129;28;20445;-79
2022/03/16 12:20:40;;;;;;;6.82;3.28;;;;;;;;;;4992121;28;20528;-78
2022/03/16 12:23:10;;;;;;;5.38;2.33;;;;;;;;;;4992014;28;20038;-78
2022/03/16 12:25:43;;;;;;;5.53;2.15;;;;;;;;;;4975819;28;20041;-79
2022/03/16 12:30:58;;;;;;;5.10;2.20;;;;;;;;;;4992247;28;20049;-78
2022/03/16 12:33:45;;;;;;;5.75;2.20;;;;;;;;;;4975347;28;20105;-78
2022/03/16 12:36:15;;;;;;;4.70;1.88;;;;;;;;;;4991669;28;20026;-79
2022/03/16 12:38:43;;;;;;;4.07;1.95;;;;;;;;;;4975487;28;20505;-78
2022/03/16 12:43:56;;;;;;;5.03;1.90;;;;;;;;;;4983865;28;20035;-78
2022/03/16 12:46:32;;;;;;;6.05;2.22;;;;;;;;;;4991808;28;20054;-79
2022/03/16 12:49:01;;;;;;;6.03;3.67;;;;;;;;;;4991066;28;20096;-79
2022/03/16 12:51:37;;;;;;;6.05;2.70;;;;;;;;;;4998241;28;20029;-79
2022/03/16 12:54:02;;;;;;;6.53;2.70;;;;;;;;;;4994423;28;20092;-79
2022/03/16 12:56:28;;;;;;;4.88;2.53;;;;;;;;;;4978443;28;20108;-79
2022/03/16 12:58:56;;;;;;;6.55;2.83;;;;;;;;;;4959356;28;20085;-80
2022/03/16 13:01:22;;;;;;;5.05;2.33;;;;;;;;;;4993891;28;20130;-79
2022/03/16 13:03:49;;;;;;;4.60;2.47;;;;;;;;;;4994298;28;20109;-79
2022/03/16 13:06:18;;;;;;;6.53;2.78;;;;;;;;;;4994624;28;20030;-80
2022/03/16 13:08:50;;;;;;;5.10;2.17;;;;;;;;;;5027469;28;20503;-80
2022/03/16 13:11:24;;;;;;;4.18;2.17;;;;;;;;;;4997892;28;20029;-79
2022/03/16 13:14:16;;;;;;;9.10;2.25;;;;;;;;;;4998527;28;20052;-80
2022/03/16 13:16:45;;;;;;;5.18;2.33;;;;;;;;;;4997858;28;20164;-80
2022/03/16 13:19:25;;;;;;;5.35;1.70;;;;;;;;;;5014313;28;20042;-79
2022/03/16 13:22:04;;;;;;;8.43;2.42;;;;;;;;;;5014929;28;20037;-79
2022/03/16 13:24:36;;;;;;;7.15;2.28;;;;;;;;;;5013659;28;20116;-79
2022/03/16 13:27:03;;;;;;;;;;;;;;;;;;5014272;28;20041;-80
2022/03/16 13:29:29;;;;;;;5.32;2.35;;;;;;;;;;5030346;28;19913;-80
2022/03/16 13:31:56;;;;;;;7.38;2.40;;;;;;;;;;5013331;28;20164;-80
2022/03/16 13:34:21;;;;;;;4.70;2.00;;;;;;;;;;4978837;28;20029;-80
2022/03/16 13:36:50;;;;;;;4.68;1.92;;;;;;;;;;4994015;28;20522;-80
2022/03/16 13:39:20;;;;;;;5.32;2.08;;;;;;;;;;4962219;28;20028;-80
2022/03/16 13:42:17;;;;;;;7.50;2.22;;;;;;;;;;4972978;28;20042;-79
2022/03/16 13:44:47;;;;;;;8.18;3.13;;;;;;;;;;4960425;28;20520;-79
2022/03/16 13:47:13;;;;;;;8.30;2.17;;;;;;;;;;4958331;28;20027;-80
2022/03/16 13:49:42;;;;;;;6.47;2.58;;;;;;;;;;4988626;28;20034;-80
2022/03/16 13:52:10;;;;;;;9.65;2.25;;;;;;;;;;4970261;28;20113;-79
2022/03/16 13:54:35;;;;;;;6.43;2.10;;;;;;;;;;5009803;28;20132;-80
2022/03/16 13:57:12;;;;;;;4.15;2.20;;;;;;;;;;5013883;28;20030;-80
2022/03/16 13:59:38;;;;;;;8.02;2.47;;;;;;;;;;4980580;28;20507;-79
2022/03/16 14:02:20;;;;;;;5.30;2.33;;;;;;;;;;4997421;28;20042;-79
2022/03/16 14:04:45;;;;;;;8.10;2.20;;;;;;;;;;4997754;28;20041;-79
2022/03/16 14:07:23;;;;;;;5.18;1.83;;;;;;;;;;4997465;28;20038;-79
2022/03/16 14:09:50;;;;;;;5.90;2.33;;;;;;;;;;4997577;28;20037;-79
2022/03/16 14:12:15;;;;;;;5.85;1.85;;;;;;;;;;4998060;28;20053;-79
2022/03/16 14:14:45;;;;;;;6.05;2.72;;;;;;;;;;4997568;28;20484;-79
2022/03/16 14:17:10;;;;;;;5.10;2.03;;;;;;;;;;4982830;28;20042;-80
2022/03/16 14:19:37;;;;;;;6.25;2.13;;;;;;;;;;4980996;28;20092;-79
2022/03/16 14:22:02;;;;;;;5.97;1.85;;;;;;;;;;4997651;28;20042;-79
2022/03/16 14:24:28;;;;;;;5.18;1.90;;;;;;;;;;5013920;28;20038;-79
2022/03/16 14:26:53;;;;;;;5.32;2.10;;;;;;;;;;4981185;28;20412;-80
2022/03/16 14:29:19;;;;;;;5.07;2.03;;;;;;;;;;4997032;28;20038;-79
2022/03/16 14:31:45;;;;;;;4.18;1.73;;;;;;;;;;4965172;28;20416;-79
2022/03/16 14:34:11;;;;;;;5.38;2.33;;;;;;;;;;4981149;28;20026;-79
2022/03/16 14:36:37;;;;;;;4.18;1.70;;;;;;;;;;4997064;28;20049;-79
2022/03/16 14:39:02;;;;;;;4.53;2.17;;;;;;;;;;4981220;28;20571;-79
2022/03/16 14:41:28;;;;;;;5.03;1.75;;;;;;;;;;4997160;28;20030;-79
2022/03/16 14:43:53;;;;;;;3.97;1.73;;;;;;;;;;5014174;28;20030;-79
2022/03/16 14:46:19;;;;;;;4.18;1.80;;;;;;;;;;4996996;28;20041;-80
2022/03/16 14:48:44;;;;;;;3.80;2.05;;;;;;;;;;4996520;28;20042;-79
2022/03/16 14:51:10;;;;;;;2.95;1.77;;;;;;;;;;4997490;28;20504;-79
2022/03/16 14:53:35;;;;;;;5.63;1.83;;;;;;;;;;4980218;28;20045;-79
2022/03/16 14:56:00;;;;;;;4.22;2.03;;;;;;;;;;4996616;28;20121;-79
2022/03/16 14:58:26;;;;;;;3.50;1.73;;;;;;;;;;4979298;28;20048;-79
2022/03/16 15:00:51;;;;;;;4.40;1.60;;;;;;;;;;4996812;28;20046;-79
2022/03/16 15:03:18;;;;;;;5.72;1.65;;;;;;;;;;4980372;28;20041;-80
2022/03/16 15:05:43;;;;;;;4.93;1.58;;;;;;;;;;4980803;28;20034;-80
2022/03/16 15:08:09;;;;;;;4.18;1.63;;;;;;;;;;4980167;28;20036;-80